Aérodrome :
LOGIN :

S'inscrire | Disclaimer

   EN    FR    IT 

 










Légende :    VFR   VFR Marginal   IFR   IFR Intensif   IFR Très Intensif
Visi : 
Plafond : 
>= 8 km
>= 3000ft
5 à 8 km
1000 à 3000 ft
1500m à 5 km
500 à 1000 ft
800 à 1500m
200 à 500 ft
< 800m
< 200 ft
Symboles :   Orages  Brouillard  Fortes neiges  Fortes précipitations  Vent > 20 kt
SIGMETs :   Divers  Orages  Givrage  Turbulence  Onde Orograph.  Cendres Volcan.







- Altitude de l'aérodrome : 423 ft
- Code IATA : PIS
- Voir les cartes d'approche


LFBI - Poitiers

DERNIER METAR :
  • 160630Z AUTO 24005KT 220V280 CAVOK 18/17 Q1014 NOSIG

METARs EXPIRÉS :
  • 160600Z AUTO 32006KT CAVOK 18/17 Q1013 NOSIG
  • 160530Z AUTO 23003KT 200V310 CAVOK 18/17 Q1014 NOSIG
  • 160500Z AUTO 25003KT 220V280 CAVOK 18/17 Q1013 TEMPO VRB15G30KT 4000 SHRA SCT050CB
  • 160430Z AUTO 17003KT 9999 ///TCU 18/16 Q1014 TEMPO VRB15G30KT 4000 SHRA SCT050CB
  • 160400Z AUTO 33006KT 9999 -RA FEW039/// SCT072/// OVC110/// ///CB 19/17 Q1013 TEMPO VRB15G30KT 4000 SHRA

TAF TAF LFBI
Valide du 16 à 06h jusqu'au 17 à 06h UTC


160500Z 1606/1706 34005KT CAVOK
TEMPO 1616/1618 29015G30KT 4000 SHRA BKN050TCU
BECMG 1620/1622 BKN020
Pas de NOTAMs connus pour ce terrain.
2 SIGMETs publiés pour la FIR Bordeaux (LFBB) :
 
Orages noyés dans la masse
LFBB SIGMET 7 VALID 160700/160800 LFPW
LFBB BORDEAUX FIR/UIR EMBD TS OBS AT 0650Z WI N4715 E00015 - N4715 E00200 - N4630 E00300 - N4215 E00230 - N4300 W00145 - N4430 W00145 - N4445 E00100 - N4715 E00015 TOP FL380 STNR NC=
Orages noyés dans la masse
LFBB SIGMET 5 VALID 160515/160700 LFPW
LFBB BORDEAUX FIR/UIR EMBD TS OBS WI N4715 E00000 - N4715 E00200 - N4630 E00300 - N4215 E00230 - N4300 W00145 - N4430 W00145 - N4500 W00030 - N4715 E00000 TOP FL380 STNR NC=



MET'MAP, la Météo Aéronautique d'un coup d'oeil ! - Copyright ORBIFLY Décembre 2007 - Disclaimer

ORBIFLY MET'MAP TEAM :

Programmation & Développement : Alexandra Zaïnal
Conception & Développement : Baudouin d'Aumeries
Co-Programmation & Développement : Marc-Olivier Méhu
Soutien technique & logistique : Manuel Goepfert

Contact : metmap@orbifly.com




SOURCES & CREDITS :

   NOAA